Time;durP1;ratioP1;P1;durP2;ratioP2;P2;SDS_P1;SDS_P2;PMS_P1;PMS_P2;Temp;Humidity;BMP_temperature;BMP_pressure;BME280_temperature;BME280_humidity;BME280_pressure;Samples;Min_cycle;Max_cycle;Signal;HPM_P1;HPM_P2
2023/01/19 00:00:40;;;;;;;22.80;10.60;;;;;;;6.70;80.24;99253.39;79634;1298;3013608;-67
2023/01/19 00:03:14;;;;;;;24.60;11.40;;;;;;;6.57;81.18;99253.53;78542;1295;3050760;-66
2023/01/19 00:05:43;;;;;;;22.40;10.50;;;;;;;6.44;81.82;99252.52;79084;1298;3011513;-67
2023/01/19 00:08:16;;;;;;;26.00;11.80;;;;;;;6.29;82.63;99255.85;79701;1298;3018754;-66
2023/01/19 00:10:46;;;;;;;17.20;8.40;;;;;;;6.26;83.28;99252.35;78366;1295;3056989;-69
2023/01/19 00:13:13;;;;;;;18.30;8.00;;;;;;;6.57;83.00;99249.81;79717;1295;3011684;-67
2023/01/19 00:15:40;;;;;;;17.60;9.20;;;;;;;6.90;81.20;99251.41;79659;1294;3011873;-68
2023/01/19 00:18:07;;;;;;;19.00;9.90;;;;;;;6.89;81.15;99246.94;78477;1298;3052495;-67
2023/01/19 00:20:34;;;;;;;19.60;10.40;;;;;;;6.74;81.71;99244.00;79648;1295;3013551;-70
2023/01/19 00:23:02;;;;;;;22.50;11.00;;;;;;;6.61;82.33;99246.19;79559;1295;3011553;-71
2023/01/19 00:25:30;;;;;;;25.40;11.60;;;;;;;6.40;83.45;99246.48;78312;1295;3057370;-66
2023/01/19 00:27:57;;;;;;;23.00;11.00;;;;;;;6.21;84.31;99248.20;79721;1295;3018567;-68
2023/01/19 00:30:24;;;;;;;21.80;9.90;;;;;;;6.20;85.13;99244.45;79516;1295;3011786;-68
2023/01/19 00:32:52;;;;;;;20.40;9.80;;;;;;;6.59;84.04;99242.64;78438;1295;3052171;-68
2023/01/19 00:35:19;;;;;;;20.60;9.30;;;;;;;6.74;82.81;99234.73;79644;1295;3013148;-67
2023/01/19 00:37:45;;;;;;;19.00;9.50;;;;;;;6.71;82.38;99228.10;79543;1296;3015650;-67
2023/01/19 00:40:13;;;;;;;22.60;10.90;;;;;;;6.67;82.78;99222.42;78417;1298;3025974;-67
2023/01/19 00:42:40;;;;;;;20.70;10.00;;;;;;;6.37;83.81;99222.81;79607;1296;3021042;-66
2023/01/19 00:45:08;;;;;;;18.90;11.30;;;;;;;6.28;84.26;99227.88;79625;1293;3012689;-69
2023/01/19 00:47:38;;;;;;;19.80;11.20;;;;;;;6.15;84.81;99227.98;78410;1296;3052823;-68
2023/01/19 00:50:05;;;;;;;18.30;9.00;;;;;;;6.04;85.67;99230.89;79650;1298;3013074;-69
2023/01/19 00:52:32;;;;;;;19.00;9.10;;;;;;;6.59;84.52;99223.81;79672;1296;3012018;-68
2023/01/19 00:55:00;;;;;;;20.10;10.60;;;;;;;6.96;82.70;99219.60;78357;1295;3056724;-69
2023/01/19 00:57:28;;;;;;;19.30;10.30;;;;;;;6.91;82.15;99227.35;79630;1295;3013447;-66
2023/01/19 00:59:55;;;;;;;18.20;9.80;;;;;;;6.70;82.52;99229.76;79658;1297;3011780;-68
2023/01/19 01:02:23;;;;;;;20.90;11.30;;;;;;;6.38;84.12;99230.24;78443;1298;3051317;-70
2023/01/19 01:04:53;;;;;;;30.20;12.00;;;;;;;6.12;85.57;99225.53;79615;1298;3015727;-67
2023/01/19 01:07:21;;;;;;;23.10;11.50;;;;;;;6.13;85.80;99229.65;78449;1298;3052635;-69
2023/01/19 01:09:48;;;;;;;21.80;9.60;;;;;;;5.96;86.78;99228.52;79668;1297;3013908;-68
2023/01/19 01:12:15;;;;;;;25.20;10.60;;;;;;;6.40;85.62;99226.84;79634;1294;3011361;-70
2023/01/19 01:14:43;;;;;;;29.20;10.50;;;;;;;6.73;83.86;99215.16;78416;1298;3029236;-67
2023/01/19 01:17:10;;;;;;;22.70;10.10;;;;;;;6.66;83.68;99222.14;79675;1298;3013055;-67
2023/01/19 01:19:37;;;;;;;18.60;9.40;;;;;;;6.61;83.97;99221.85;79621;1298;3011643;-69
2023/01/19 01:22:05;;;;;;;24.20;11.80;;;;;;;6.55;83.72;99220.39;78388;1294;3025301;-71
2023/01/19 01:24:31;;;;;;;24.50;11.20;;;;;;;6.34;85.07;99216.83;79702;1295;3013670;-68
2023/01/19 01:26:58;;;;;;;22.30;11.90;;;;;;;6.19;85.70;99213.19;79647;1296;3011593;-66
2023/01/19 01:29:26;;;;;;;15.10;7.70;;;;;;;6.11;86.46;99225.04;78371;1295;3026545;-70
2023/01/19 01:31:52;;;;;;;17.40;8.70;;;;;;;6.61;84.90;99221.83;79663;1297;3013326;-68
2023/01/19 01:34:19;;;;;;;20.30;10.20;;;;;;;6.96;83.14;99218.56;79619;1294;3012009;-69
2023/01/19 01:36:47;;;;;;;25.40;11.30;;;;;;;6.80;82.89;99221.44;78408;1296;3029052;-70
2023/01/19 01:39:14;;;;;;;24.80;11.60;;;;;;;6.71;83.10;99222.92;79628;1298;3013047;-65
2023/01/19 01:41:40;;;;;;;22.80;11.10;;;;;;;6.42;84.14;99224.11;79629;1297;3012986;-68
2023/01/19 01:44:48;;;;;;;23.50;11.10;;;;;;;6.34;84.57;99218.23;78369;1296;3026232;-67
2023/01/19 01:47:43;;;;;;;20.50;10.30;;;;;;;6.17;85.15;99226.15;78418;1298;3052616;-68
2023/01/19 01:50:26;;;;;;;17.70;9.40;;;;;;;6.09;86.49;99229.44;78463;1298;3052966;-67
2023/01/19 01:52:56;;;;;;;20.50;8.70;;;;;;;6.69;84.26;99230.83;78439;1295;3068688;-67
2023/01/19 01:55:24;;;;;;;19.80;9.20;;;;;;;6.79;83.28;99232.80;79677;1298;3011353;-67
2023/01/19 01:57:56;;;;;;;21.90;10.30;;;;;;;6.69;83.31;99235.34;79098;1297;3013218;-69
2023/01/19 02:00:23;;;;;;;17.50;9.00;;;;;;;6.57;83.82;99239.59;79713;1294;3012061;-68
2023/01/19 02:02:55;;;;;;;17.90;9.70;;;;;;;6.35;84.76;99243.75;78462;1297;3053149;-66
2023/01/19 02:05:25;;;;;;;18.80;10.20;;;;;;;6.30;85.11;99241.04;79546;1298;3013902;-66
2023/01/19 02:13:34;;;;;;;18.80;8.30;;;;;;;6.83;84.16;99251.57;78353;1298;3069377;-67
2023/01/19 02:16:06;;;;;;;17.50;9.00;;;;;;;6.98;82.95;99255.05;79683;1295;3013199;-69
2023/01/19 02:18:34;;;;;;;17.70;9.60;;;;;;;7.04;82.50;99255.23;78381;1298;3056315;-69
2023/01/19 02:21:04;;;;;;;21.20;9.90;;;;;;;6.92;82.69;99256.70;79615;1294;3013341;-70
2023/01/19 02:23:45;;;;;;;19.10;9.30;;;;;;;6.70;83.37;99256.91;79183;1295;3011430;-68
2023/01/19 02:26:24;;;;;;;22.70;9.30;;;;;;;6.43;84.44;99264.25;78432;1298;3050528;-64
2023/01/19 02:28:59;;;;;;;20.40;9.90;;;;;;;6.37;84.77;99269.21;78480;1298;3052365;-64
2023/01/19 02:31:29;;;;;;;16.20;7.70;;;;;;;6.37;84.95;99268.88;79141;1298;3013565;-66
2023/01/19 02:33:56;;;;;;;16.30;8.00;;;;;;;6.78;83.82;99272.17;79680;1301;3014106;-67
2023/01/19 02:36:26;;;;;;;15.60;8.20;;;;;;;7.04;82.63;99269.02;79622;1296;3011646;-69
2023/01/19 02:38:55;;;;;;;18.40;9.80;;;;;;;7.06;81.90;99269.61;78322;1295;3056613;-67
2023/01/19 02:41:27;;;;;;;24.30;10.80;;;;;;;6.84;82.42;99263.70;79650;1294;3012959;-66
2023/01/19 02:43:56;;;;;;;16.90;9.30;;;;;;;6.71;83.17;99264.14;78391;1298;3051265;-68
2023/01/19 02:46:23;;;;;;;18.10;10.00;;;;;;;6.53;84.19;99263.27;79720;1298;3013319;-69
2023/01/19 02:48:50;;;;;;;20.70;10.30;;;;;;;6.33;84.78;99266.98;79615;1298;3013468;-68
2023/01/19 02:51:21;;;;;;;24.90;10.90;;;;;;;6.32;84.98;99270.16;78371;1298;3052475;-67
2023/01/19 02:53:57;;;;;;;15.60;8.00;;;;;;;6.23;85.34;99263.98;79669;1294;3012184;-68
2023/01/19 02:56:38;;;;;;;16.10;8.10;;;;;;;6.53;84.84;99266.73;78427;1295;3050719;-67
2023/01/19 02:59:36;;;;;;;18.80;9.00;;;;;;;7.20;82.05;99259.71;78438;1298;3054670;-68
2023/01/19 03:02:13;;;;;;;15.90;9.50;;;;;;;7.00;81.94;99264.16;78405;1298;3051205;-67
2023/01/19 03:04:50;;;;;;;19.00;9.80;;;;;;;6.78;82.75;99264.67;78418;1293;3052471;-68
2023/01/19 03:07:50;;;;;;;18.50;10.20;;;;;;;6.67;83.28;99268.52;78436;1296;3054129;-66
2023/01/19 03:10:25;;;;;;;21.50;9.80;;;;;;;6.56;83.70;99272.54;78390;1298;3068575;-71
2023/01/19 03:13:19;;;;;;;17.80;9.20;;;;;;;6.30;84.48;99278.05;79107;1294;3011643;-68
2023/01/19 03:15:57;;;;;;;19.70;7.60;;;;;;;6.29;85.18;99275.33;78354;1296;3051392;-69
2023/01/19 03:18:26;;;;;;;15.30;8.10;;;;;;;6.75;84.08;99267.98;78384;1296;3057412;-67
2023/01/19 03:20:55;;;;;;;18.10;8.10;;;;;;;7.27;81.28;99274.86;79612;1294;3013256;-69
2023/01/19 03:23:25;;;;;;;18.20;8.60;;;;;;;6.93;81.69;99275.12;78406;1296;3025872;-69
2023/01/19 03:25:51;;;;;;;18.40;9.00;;;;;;;7.04;81.67;99272.35;79760;1298;3011558;-68
2023/01/19 03:28:21;;;;;;;20.50;9.10;;;;;;;6.75;82.32;99274.05;78941;1301;3013724;-65
2023/01/19 03:30:56;;;;;;;19.30;9.10;;;;;;;6.54;83.28;99281.64;79551;1301;3018151;-69
2023/01/19 03:33:28;;;;;;;18.00;9.30;;;;;;;6.45;83.90;99288.00;78393;1296;3053490;-68
2023/01/19 03:35:57;;;;;;;22.20;10.10;;;;;;;6.39;84.04;99286.56;79724;1295;3012448;-66
2023/01/19 03:38:25;;;;;;;13.60;7.20;;;;;;;6.36;84.47;99287.37;78477;1295;3048943;-66
2023/01/19 03:40:55;;;;;;;17.80;7.50;;;;;;;6.75;83.30;99291.27;79478;1296;3016059;-66
2023/01/19 03:43:25;;;;;;;19.60;7.80;;;;;;;7.18;81.44;99293.40;78401;1298;3053361;-67
2023/01/19 03:45:52;;;;;;;17.10;8.50;;;;;;;7.28;80.42;99289.96;79502;1301;3013081;-65
2023/01/19 03:48:19;;;;;;;18.80;9.20;;;;;;;6.98;81.40;99290.40;79609;1294;3011817;-69
2023/01/19 03:50:50;;;;;;;24.00;9.40;;;;;;;6.82;82.00;99288.35;78384;1295;3058005;-65
2023/01/19 03:53:16;;;;;;;20.50;9.30;;;;;;;6.60;82.97;99291.48;79676;1294;3015872;-67
2023/01/19 03:55:47;;;;;;;18.80;9.60;;;;;;;6.45;83.96;99299.32;79604;1295;3011569;-65
2023/01/19 03:58:14;;;;;;;20.90;9.60;;;;;;;6.53;83.52;99299.30;78410;1298;3053458;-65
2023/01/19 04:00:41;;;;;;;16.50;6.90;;;;;;;6.44;84.24;99297.09;79720;1295;3012791;-67
2023/01/19 04:03:12;;;;;;;13.90;7.40;;;;;;;6.92;83.35;99290.68;79626;1295;3013138;-66
2023/01/19 04:05:41;;;;;;;22.00;7.90;;;;;;;7.12;81.28;99297.69;78399;1301;3055887;-70
2023/01/19 04:08:08;;;;;;;18.40;8.80;;;;;;;7.15;80.82;99302.08;79621;1295;3014680;-65
2023/01/19 04:10:36;;;;;;;18.80;7.90;;;;;;;7.08;81.25;99304.67;79637;1295;3011692;-64
2023/01/19 04:13:04;;;;;;;17.10;8.60;;;;;;;6.94;81.54;99310.92;78388;1295;3054195;-67
2023/01/19 04:15:31;;;;;;;15.40;8.60;;;;;;;6.72;82.28;99318.05;79636;1298;3013726;-68
2023/01/19 04:17:59;;;;;;;18.40;8.70;;;;;;;6.68;82.83;99319.85;79617;1296;3011601;-67
2023/01/19 04:20:27;;;;;;;18.90;8.50;;;;;;;6.60;83.03;99321.23;78364;1295;3055505;-68
2023/01/19 04:22:59;;;;;;;13.00;6.80;;;;;;;6.32;84.56;99316.94;79657;1296;3013547;-66
2023/01/19 04:25:27;;;;;;;14.00;7.00;;;;;;;6.93;82.82;99314.80;78430;1295;3052368;-70
2023/01/19 04:27:54;;;;;;;12.30;7.00;;;;;;;7.15;81.08;99312.01;79561;1298;3013651;-67
2023/01/19 04:30:21;;;;;;;20.60;9.00;;;;;;;7.29;80.16;99312.92;79661;1298;3013551;-70
2023/01/19 04:32:49;;;;;;;17.90;8.40;;;;;;;7.09;80.73;99320.49;78408;1298;3025973;-67
2023/01/19 04:35:16;;;;;;;20.60;7.90;;;;;;;7.08;80.64;99314.63;79655;1295;3018456;-68
2023/01/19 04:37:47;;;;;;;18.00;9.20;;;;;;;6.94;81.14;99332.02;79086;1296;3011702;-68
2023/01/19 04:40:14;;;;;;;19.40;9.00;;;;;;;6.67;82.34;99339.56;79672;1296;3013549;-66
2023/01/19 04:42:44;;;;;;;16.50;8.20;;;;;;;6.63;82.66;99337.11;79423;1295;3011755;-64
2023/01/19 04:45:13;;;;;;;12.60;6.00;;;;;;;6.59;82.79;99333.29;78492;1295;3052962;-69
2023/01/19 04:47:41;;;;;;;16.10;6.50;;;;;;;6.85;82.03;99335.90;79557;1298;3011550;-70
2023/01/19 04:50:09;;;;;;;15.10;7.10;;;;;;;7.49;79.62;99330.73;79478;1296;3012127;-65
2023/01/19 04:52:38;;;;;;;22.20;9.40;;;;;;;7.49;78.66;99328.30;78395;1295;3056086;-65
2023/01/19 04:55:06;;;;;;;15.60;7.60;;;;;;;7.13;79.86;99333.40;79618;1295;3013061;-68
2023/01/19 04:57:33;;;;;;;17.80;8.90;;;;;;;7.10;79.80;99330.02;79569;1295;3013156;-67
2023/01/19 05:00:01;;;;;;;15.30;8.20;;;;;;;6.82;80.81;99340.77;78187;1298;3052896;-65
2023/01/19 05:02:28;;;;;;;18.70;8.70;;;;;;;6.61;81.74;99345.21;79575;1298;3013319;-67
2023/01/19 05:04:55;;;;;;;20.20;9.40;;;;;;;6.64;81.56;99339.66;79401;1297;3011394;-66
2023/01/19 05:07:23;;;;;;;15.60;6.50;;;;;;;6.33;83.02;99342.98;78464;1298;3056645;-65
2023/01/19 05:09:50;;;;;;;16.80;6.80;;;;;;;6.77;82.06;99346.91;79688;1296;3012735;-65
2023/01/19 05:12:17;;;;;;;13.30;7.40;;;;;;;7.13;80.19;99355.11;79693;1298;3011956;-66
2023/01/19 05:14:45;;;;;;;17.40;8.00;;;;;;;7.21;78.90;99355.81;78356;1298;3052843;-67
2023/01/19 05:18:15;;;;;;;20.50;9.10;;;;;;;6.96;80.11;99365.34;79924;1301;3011579;-66
2023/01/19 05:20:42;;;;;;;16.10;8.60;;;;;;;6.83;80.47;99372.92;79165;1308;3013479;-66
2023/01/19 05:23:08;;;;;;;18.70;8.70;;;;;;;6.71;80.96;99367.38;79264;1302;3011663;-66
2023/01/19 05:25:36;;;;;;;16.10;8.50;;;;;;;6.58;81.52;99367.82;78038;1308;3026896;-65
2023/01/19 05:28:04;;;;;;;19.30;9.20;;;;;;;6.39;82.12;99372.29;79218;1304;3013485;-65
2023/01/19 05:30:31;;;;;;;15.10;6.30;;;;;;;6.42;82.60;99365.41;78128;1305;3013122;-67
2023/01/19 05:33:00;;;;;;;22.00;7.50;;;;;;;6.76;81.70;99370.81;78216;1298;3048785;-64
2023/01/19 05:35:27;;;;;;;22.80;7.40;;;;;;;7.26;79.62;99374.19;79397;1304;3012708;-65
2023/01/19 05:37:53;;;;;;;18.10;8.20;;;;;;;7.43;78.08;99379.13;79312;1301;3013232;-67
2023/01/19 05:40:21;;;;;;;18.50;8.20;;;;;;;7.13;78.83;99385.45;78220;1304;3026518;-70
2023/01/19 05:42:48;;;;;;;15.80;8.50;;;;;;;6.91;79.61;99394.31;79370;1303;3012926;-65
2023/01/19 05:45:14;;;;;;;15.80;7.80;;;;;;;6.83;80.02;99397.64;79521;1300;3012917;-66
2023/01/19 05:47:42;;;;;;;17.60;8.00;;;;;;;6.77;80.39;99408.68;78271;1300;3026087;-66
2023/01/19 05:50:09;;;;;;;17.00;7.50;;;;;;;6.54;81.36;99415.85;79468;1295;3013632;-67
2023/01/19 05:52:36;;;;;;;19.60;9.30;;;;;;;6.52;81.43;99414.55;79439;1300;3011664;-67
2023/01/19 05:55:04;;;;;;;12.90;6.40;;;;;;;6.41;81.76;99411.38;78304;1300;3026122;-67
2023/01/19 05:57:31;;;;;;;14.50;6.30;;;;;;;6.94;80.60;99411.40;79491;1301;3013535;-66
2023/01/19 05:59:58;;;;;;;13.70;7.20;;;;;;;7.51;78.13;99409.23;79446;1295;3011642;-68
2023/01/19 06:02:28;;;;;;;15.00;6.90;;;;;;;7.38;77.34;99409.85;78303;1300;3049008;-68
2023/01/19 06:04:58;;;;;;;15.60;6.70;;;;;;;7.21;78.25;99414.70;79449;1295;3012954;-64
2023/01/19 06:07:26;;;;;;;14.50;7.50;;;;;;;6.97;79.08;99421.75;78285;1301;3048876;-66
2023/01/19 06:09:52;;;;;;;15.90;7.50;;;;;;;6.82;80.01;99427.83;79459;1301;3012885;-66
2023/01/19 06:12:19;;;;;;;20.50;7.80;;;;;;;6.71;80.69;99429.72;79642;1300;3011891;-69
2023/01/19 06:14:47;;;;;;;19.50;8.10;;;;;;;6.78;80.49;99429.89;78373;1295;3027538;-67
2023/01/19 06:17:13;;;;;;;15.00;7.90;;;;;;;6.66;80.93;99429.21;79572;1296;3011830;-67
2023/01/19 06:19:40;;;;;;;14.40;6.10;;;;;;;6.67;81.22;99433.90;79448;1295;3011620;-66
2023/01/19 06:22:08;;;;;;;10.60;5.50;;;;;;;7.16;79.46;99440.55;78220;1301;3025528;-65
2023/01/19 06:24:35;;;;;;;12.60;6.50;;;;;;;7.71;77.24;99437.88;79606;1301;3018674;-66
2023/01/19 06:27:02;;;;;;;11.70;6.50;;;;;;;7.75;76.58;99433.70;79401;1301;3011489;-66
2023/01/19 06:29:30;;;;;;;15.00;7.30;;;;;;;7.45;77.11;99442.48;78299;1295;3028969;-66
2023/01/19 06:31:56;;;;;;;15.30;7.00;;;;;;;7.27;77.78;99444.40;79716;1295;3018613;-68
2023/01/19 06:34:27;;;;;;;14.90;7.60;;;;;;;7.19;77.71;99445.43;79561;1295;3013851;-67
2023/01/19 06:36:55;;;;;;;15.30;8.00;;;;;;;6.92;79.32;99448.60;78354;1301;3049050;-68
2023/01/19 06:39:22;;;;;;;21.10;8.60;;;;;;;6.77;79.82;99450.81;79469;1301;3013504;-66
2023/01/19 06:41:48;;;;;;;22.80;8.60;;;;;;;6.75;80.14;99453.01;79434;1300;3013087;-66
2023/01/19 06:44:16;;;;;;;19.30;9.20;;;;;;;6.68;80.39;99454.04;78413;1296;3026680;-68
2023/01/19 06:46:43;;;;;;;13.70;6.70;;;;;;;6.53;81.43;99455.92;79546;1301;3013556;-67
2023/01/19 06:49:09;;;;;;;17.20;6.50;;;;;;;7.07;80.26;99448.74;79436;1295;3013758;-67
2023/01/19 06:51:40;;;;;;;16.10;7.60;;;;;;;7.61;77.57;99449.89;78346;1301;3049609;-66
2023/01/19 06:54:07;;;;;;;19.80;8.10;;;;;;;7.72;76.99;99451.98;79786;1301;3019062;-64
2023/01/19 06:56:33;;;;;;;18.20;8.60;;;;;;;7.52;77.23;99450.84;79545;1301;3012673;-67
2023/01/19 06:59:01;;;;;;;16.50;8.20;;;;;;;7.48;77.55;99450.16;78138;1298;3026183;-66
2023/01/19 07:01:28;;;;;;;15.10;8.10;;;;;;;7.26;78.07;99449.27;79433;1295;3020561;-66
2023/01/19 07:03:54;;;;;;;22.30;8.40;;;;;;;7.10;78.86;99445.69;79490;1295;3013434;-66
2023/01/19 07:06:22;;;;;;;17.90;8.40;;;;;;;7.10;79.26;99453.57;78193;1301;3025555;-66
2023/01/19 07:08:50;;;;;;;20.60;8.00;;;;;;;6.92;79.53;99454.31;79472;1301;3013134;-67
2023/01/19 07:11:17;;;;;;;18.50;8.60;;;;;;;6.86;80.10;99445.02;79493;1301;3011831;-65
2023/01/19 07:13:50;;;;;;;12.70;6.20;;;;;;;6.87;80.07;99443.80;78284;1301;3050203;-66
2023/01/19 07:16:17;;;;;;;16.70;7.10;;;;;;;7.33;78.64;99445.30;79514;1295;3011537;-63
2023/01/19 07:18:46;;;;;;;15.10;6.60;;;;;;;7.82;76.85;99439.63;78223;1300;3049264;-65
2023/01/19 07:21:14;;;;;;;15.10;7.30;;;;;;;7.89;75.76;99449.75;79376;1295;3013026;-64
2023/01/19 07:23:42;;;;;;;17.30;7.80;;;;;;;7.63;76.50;99454.14;79465;1296;3011557;-64
2023/01/19 07:26:10;;;;;;;20.30;7.90;;;;;;;7.63;77.00;99457.66;78182;1300;3053283;-64
2023/01/19 07:28:37;;;;;;;19.40;8.10;;;;;;;7.46;77.50;99459.51;79417;1301;3015913;-64
2023/01/19 07:31:05;;;;;;;19.00;8.60;;;;;;;7.35;78.39;99471.00;79563;1299;3011682;-64
2023/01/19 07:33:33;;;;;;;18.40;7.80;;;;;;;7.37;78.25;99471.09;78173;1296;3048563;-64
2023/01/19 07:35:59;;;;;;;19.20;8.60;;;;;;;7.35;78.65;99476.73;79336;1296;3012924;-64
2023/01/19 07:38:26;;;;;;;19.10;8.40;;;;;;;7.35;78.59;99468.73;79399;1301;3012038;-65
2023/01/19 07:41:04;;;;;;;11.50;5.80;;;;;;;7.43;78.60;99474.09;78344;1296;3026349;-65
2023/01/19 07:43:33;;;;;;;11.50;6.20;;;;;;;8.10;76.81;99473.30;78327;1301;3069219;-65
2023/01/19 07:46:01;;;;;;;22.70;6.60;;;;;;;8.61;74.53;99474.73;79586;1295;3014513;-65
2023/01/19 07:48:30;;;;;;;14.50;7.50;;;;;;;8.76;73.96;99481.80;79031;1295;3011791;-66
2023/01/19 07:51:11;;;;;;;17.20;7.70;;;;;;;8.73;73.57;99487.71;79557;1301;3013337;-65
2023/01/19 07:53:40;;;;;;;23.00;8.10;;;;;;;8.59;74.11;99490.38;78328;1300;3049943;-66
2023/01/19 07:56:07;;;;;;;16.10;7.60;;;;;;;8.54;74.27;99489.96;79470;1296;3011650;-65
2023/01/19 07:58:33;;;;;;;18.50;8.10;;;;;;;8.51;74.61;99491.84;79529;1300;3013362;-64
2023/01/19 08:01:08;;;;;;;16.80;8.50;;;;;;;8.41;74.66;99499.13;78458;1295;3049533;-65
2023/01/19 08:03:37;;;;;;;17.90;8.30;;;;;;;8.34;75.11;99499.13;78277;1296;3057013;-65
2023/01/19 08:06:04;;;;;;;13.10;6.90;;;;;;;8.29;75.33;99499.40;79593;1301;3013378;-66
2023/01/19 08:08:38;;;;;;;15.20;7.30;;;;;;;8.23;75.31;99500.35;78381;1301;3050830;-64
2023/01/19 08:11:04;;;;;;;16.20;8.10;;;;;;;8.30;74.95;99497.94;79596;1301;3020539;-65
2023/01/19 08:13:31;;;;;;;23.20;8.50;;;;;;;8.17;75.40;99503.82;79526;1298;3012974;-65
2023/01/19 08:16:00;;;;;;;23.20;8.50;;;;;;;8.22;74.98;99512.30;78418;1296;3050962;-65
2023/01/19 08:18:26;;;;;;;14.60;6.20;;;;;;;8.20;75.43;99500.38;79580;1296;3018812;-65
2023/01/19 08:20:53;;;;;;;14.80;6.30;;;;;;;8.72;73.84;99494.25;79367;1301;3011926;-66
2023/01/19 08:23:22;;;;;;;14.40;6.90;;;;;;;9.33;71.61;99497.64;78336;1305;3026015;-64
2023/01/19 08:25:49;;;;;;;14.80;6.90;;;;;;;9.29;70.63;99503.45;79556;1298;3012987;-66
2023/01/19 08:28:15;;;;;;;14.80;7.70;;;;;;;9.11;71.01;99496.56;79498;1296;3011579;-65
2023/01/19 08:30:43;;;;;;;19.00;7.70;;;;;;;9.16;70.96;99499.94;78552;1299;3050252;-67
2023/01/19 08:33:11;;;;;;;15.10;6.80;;;;;;;8.99;71.20;99502.94;79600;1301;3018468;-65
2023/01/19 08:35:40;;;;;;;17.70;7.20;;;;;;;8.85;71.52;99496.86;79561;1295;3011638;-65
2023/01/19 08:38:08;;;;;;;13.20;6.40;;;;;;;8.83;71.70;99492.45;78270;1298;3050061;-66
2023/01/19 08:40:36;;;;;;;12.20;6.90;;;;;;;8.88;71.78;99485.02;79582;1299;3013196;-65
2023/01/19 08:43:07;;;;;;;12.50;6.60;;;;;;;8.88;72.12;99489.58;79610;1298;3013523;-66
2023/01/19 08:45:36;;;;;;;19.50;7.80;;;;;;;8.81;72.29;99484.35;78366;1295;3050067;-65
2023/01/19 08:48:03;;;;;;;14.60;7.30;;;;;;;8.83;72.31;99482.33;80233;1296;3012977;-66
2023/01/19 08:50:30;;;;;;;18.20;7.10;;;;;;;8.76;72.27;99486.34;79647;1298;3011674;-66
2023/01/19 08:52:59;;;;;;;18.00;6.50;;;;;;;8.78;72.12;99479.80;78357;1306;3049149;-65
2023/01/19 08:55:26;;;;;;;15.80;7.40;;;;;;;8.82;72.36;99476.98;79638;1301;3012090;-65
2023/01/19 08:57:53;;;;;;;15.60;6.90;;;;;;;8.80;72.38;99473.91;79597;1296;3011552;-66
2023/01/19 09:00:21;;;;;;;15.60;6.80;;;;;;;8.80;72.68;99479.16;78324;1299;3052235;-66
2023/01/19 09:02:47;;;;;;;18.50;7.60;;;;;;;8.81;72.78;99476.48;79772;1297;3018392;-66
2023/01/19 09:05:14;;;;;;;18.90;9.60;;;;;;;8.82;72.83;99482.21;79578;1299;3011619;-65
2023/01/19 09:07:44;;;;;;;14.00;6.90;;;;;;;8.84;72.43;99485.22;78303;1303;3026362;-66
2023/01/19 09:10:11;;;;;;;18.40;7.70;;;;;;;8.82;72.47;99482.36;79488;1301;3013509;-66
2023/01/19 09:12:40;;;;;;;15.50;7.20;;;;;;;8.93;71.95;99487.38;79030;1296;3011746;-66
2023/01/19 09:15:09;;;;;;;15.30;6.90;;;;;;;8.85;72.15;99484.33;79531;1298;3012908;-66
2023/01/19 09:17:36;;;;;;;16.20;7.60;;;;;;;8.79;72.52;99490.04;79554;1295;3011621;-67
2023/01/19 09:20:05;;;;;;;14.90;7.30;;;;;;;8.72;73.07;99487.23;78383;1295;3049382;-66
2023/01/19 09:22:32;;;;;;;16.40;7.60;;;;;;;8.75;72.98;99485.54;79606;1301;3013186;-66
2023/01/19 09:24:59;;;;;;;14.00;7.60;;;;;;;8.78;72.94;99486.10;79556;1299;3011804;-65
2023/01/19 09:27:27;;;;;;;11.30;6.80;;;;;;;8.74;73.15;99483.32;78247;1299;3053924;-66
2023/01/19 09:29:53;;;;;;;13.30;6.20;;;;;;;8.75;72.87;99479.58;79606;1295;3012999;-66
2023/01/19 09:32:21;;;;;;;12.00;5.00;;;;;;;8.79;73.18;99475.89;79504;1301;3013828;-66
2023/01/19 09:34:49;;;;;;;12.90;5.90;;;;;;;9.38;71.96;99469.06;78314;1295;3049073;-66
2023/01/19 09:37:16;;;;;;;14.00;4.90;;;;;;;9.79;69.78;99469.19;79747;1298;3012946;-66
2023/01/19 09:39:43;;;;;;;15.30;7.00;;;;;;;9.94;69.08;99466.75;79709;1298;3012004;-67
2023/01/19 09:42:31;;;;;;;15.20;5.80;;;;;;;9.82;68.92;99458.70;78301;1298;3026319;-66
2023/01/19 09:44:59;;;;;;;13.70;5.90;;;;;;;9.82;68.98;99466.95;78349;1295;3068290;-66
2023/01/19 09:47:27;;;;;;;11.90;5.90;;;;;;;9.61;69.59;99469.48;79639;1299;3013320;-65
2023/01/19 09:50:00;;;;;;;12.60;5.80;;;;;;;9.60;69.71;99466.56;79501;1295;3011663;-65
2023/01/19 09:52:29;;;;;;;12.50;5.90;;;;;;;9.58;69.95;99467.95;78375;1295;3052540;-66
2023/01/19 09:54:56;;;;;;;14.20;6.80;;;;;;;9.42;70.27;99469.35;80023;1298;3012873;-66
2023/01/19 09:57:23;;;;;;;15.00;6.80;;;;;;;9.46;70.10;99467.37;79685;1298;3011484;-66
2023/01/19 09:59:56;;;;;;;11.90;5.90;;;;;;;9.47;70.41;99461.40;78523;1300;3069271;-68
2023/01/19 10:02:43;;;;;;;14.40;6.40;;;;;;;9.49;70.80;99463.54;79755;1302;3011574;-67
2023/01/19 10:05:22;;;;;;;12.60;5.70;;;;;;;9.49;70.80;99463.35;78372;1295;3056099;-66
2023/01/19 10:08:07;;;;;;;11.60;6.00;;;;;;;9.43;70.84;99459.48;78365;1301;3048956;-66
2023/01/19 10:10:36;;;;;;;16.90;7.20;;;;;;;9.48;71.06;99459.56;78234;1302;3053573;-68
2023/01/19 10:13:03;;;;;;;15.90;6.10;;;;;;;9.57;71.04;99457.33;79532;1302;3013078;-67
2023/01/19 10:15:59;;;;;;;12.40;6.10;;;;;;;9.64;70.93;99454.48;79611;1298;3011191;-66
2023/01/19 10:18:41;;;;;;;12.10;6.40;;;;;;;9.74;70.58;99449.38;78331;1298;3068395;-66
2023/01/19 10:21:12;;;;;;;13.10;6.30;;;;;;;9.78;70.73;99440.89;78933;1294;3051111;-67
2023/01/19 10:23:40;;;;;;;11.40;6.20;;;;;;;9.88;70.66;99441.89;79398;1299;3013538;-68
2023/01/19 10:26:14;;;;;;;12.40;6.10;;;;;;;9.87;70.80;99443.33;79101;1298;3013040;-67
2023/01/19 10:28:41;;;;;;;14.00;6.40;;;;;;;10.03;70.46;99440.48;79540;1302;3011382;-67
2023/01/19 10:31:08;;;;;;;12.40;6.50;;;;;;;10.05;70.39;99441.27;78281;1301;3049405;-69
2023/01/19 10:33:36;;;;;;;14.60;5.90;;;;;;;10.07;70.59;99438.71;80389;1303;3013598;-67
2023/01/19 10:36:14;;;;;;;12.00;6.00;;;;;;;10.13;70.51;99443.93;79419;1295;3011899;-68
2023/01/19 10:38:43;;;;;;;9.40;5.90;;;;;;;10.08;70.79;99437.77;78326;1301;3051895;-66
2023/01/19 10:41:18;;;;;;;9.10;5.20;;;;;;;10.20;70.50;99436.88;79414;1301;3012992;-66
2023/01/19 10:43:46;;;;;;;11.50;6.00;;;;;;;10.33;70.37;99427.17;78192;1298;3053994;-67
2023/01/19 10:46:20;;;;;;;14.70;6.00;;;;;;;10.46;70.30;99436.75;79485;1301;3013021;-67
2023/01/19 10:48:49;;;;;;;14.60;6.10;;;;;;;10.57;70.18;99435.26;78276;1298;3053203;-66
2023/01/19 10:51:16;;;;;;;9.10;5.30;;;;;;;10.64;70.11;99434.42;79749;1295;3012947;-66
2023/01/19 10:53:52;;;;;;;9.00;5.70;;;;;;;10.77;69.60;99435.92;79605;1309;3012943;-67
2023/01/19 10:56:41;;;;;;;10.00;5.40;;;;;;;10.82;69.75;99435.43;78436;1298;3049560;-66
2023/01/19 10:59:30;;;;;;;15.80;5.90;;;;;;;10.88;69.28;99438.02;78380;1296;3054893;-67
2023/01/19 11:02:17;;;;;;;16.10;5.60;;;;;;;10.89;69.21;99441.13;78426;1298;3049389;-67
2023/01/19 11:04:48;;;;;;;10.80;4.90;;;;;;;10.89;69.06;99432.55;78390;1298;3054812;-66
2023/01/19 11:07:22;;;;;;;9.90;5.40;;;;;;;11.04;68.88;99436.89;79673;1298;3011897;-66
2023/01/19 11:10:16;;;;;;;15.20;5.90;;;;;;;11.25;68.25;99434.67;78374;1296;3068782;-66
2023/01/19 11:12:54;;;;;;;;;;;;;;;11.44;67.98;99427.67;78333;1301;3050849;-68
2023/01/19 11:15:42;;;;;;;10.60;5.10;;;;;;;11.50;67.62;99427.48;78362;1298;3057049;-66
2023/01/19 11:18:20;;;;;;;11.20;5.40;;;;;;;11.63;67.16;99426.31;78365;1298;3050323;-66
2023/01/19 11:20:49;;;;;;;8.70;5.00;;;;;;;11.67;66.85;99427.23;78597;1301;3053346;-67
2023/01/19 11:23:28;;;;;;;12.60;5.20;;;;;;;11.80;66.13;99421.45;80000;1295;3011860;-66
2023/01/19 11:25:57;;;;;;;11.00;4.70;;;;;;;11.78;65.43;99428.48;78379;1295;3051876;-67
2023/01/19 11:28:35;;;;;;;11.80;5.30;;;;;;;11.77;65.76;99430.96;79607;1299;3013297;-66
2023/01/19 11:31:09;;;;;;;8.80;4.60;;;;;;;11.96;65.95;99427.64;78403;1298;3069578;-65
2023/01/19 11:33:50;;;;;;;11.20;4.00;;;;;;;12.05;65.76;99422.52;79858;1294;3011951;-66
2023/01/19 11:36:23;;;;;;;10.80;5.30;;;;;;;12.17;66.03;99429.23;78448;1298;3055875;-66